CheckWX is a tool to help pilots better visualize weather data.  It is not intended as a substitute for an official pre-flight weather briefing.

03:16:02 UTC

VTSK TAF
Pattani Airport
Thailand
TAF VTSK 092300Z 1000/1024 09008KT 9999 FEW020 SCT100 TEMPO 1000/1006 5000 RA SCT015 BKN100 TEMPO 1012/1018 5000 RA SCT015 BKN100 TEMPO 1018/1024 5000 RA SCT015 BKN100

Dec-10@
00:00 UTC

Dec-10 @ 00:00 UTC

Dec-11@
00:00 UTC

Dec-11 @ 00:00 UTC

TAF VTSK 092300Z 1000/1024 09008KT 9999 FEW020 SCT100
Wind
  • 090° at 8 KTS
Cloud Levels
  • Few at 2,000' AGL
  • Scattered at 10,000' AGL

Dec-10@
00:00 UTC

Dec-10 @ 00:00 UTC

Dec-10@
06:00 UTC

Dec-10 @ 06:00 UTC

TEMPO 1000/1006 5000 RA SCT015 BKN100

Temporary

Temporary Changes expected for less than half the time period

Conditions
Rain
Cloud Levels
  • Scattered at 1,500' AGL
  • Broken at 10,000' AGL

Dec-10@
12:00 UTC

Dec-10 @ 12:00 UTC

Dec-10@
18:00 UTC

Dec-10 @ 18:00 UTC

TEMPO 1012/1018 5000 RA SCT015 BKN100

Temporary

Temporary Changes expected for less than half the time period

Conditions
Rain
Cloud Levels
  • Scattered at 1,500' AGL
  • Broken at 10,000' AGL

Dec-10@
18:00 UTC

Dec-10 @ 18:00 UTC

Dec-11@
00:00 UTC

Dec-11 @ 00:00 UTC

TEMPO 1018/1024 5000 RA SCT015 BKN100

Temporary

Temporary Changes expected for less than half the time period

Conditions
Rain
Cloud Levels
  • Scattered at 1,500' AGL
  • Broken at 10,000' AGL